sensor_id;sensor_type;location;lat;lon;timestamp;temperature;humidity
9375;DHT22;4727;51.202;6.344;2022-10-26T00:00:05;12.70;1.00
9375;DHT22;4727;51.202;6.344;2022-10-26T00:02:32;12.70;1.00
9375;DHT22;4727;51.202;6.344;2022-10-26T00:04:57;12.70;1.00
9375;DHT22;4727;51.202;6.344;2022-10-26T00:07:23;12.60;1.00
9375;DHT22;4727;51.202;6.344;2022-10-26T00:09:48;12.70;1.00
9375;DHT22;4727;51.202;6.344;2022-10-26T00:12:14;12.80;1.00
9375;DHT22;4727;51.202;6.344;2022-10-26T00:14:40;12.70;1.00
9375;DHT22;4727;51.202;6.344;2022-10-26T00:17:05;12.70;1.00
9375;DHT22;4727;51.202;6.344;2022-10-26T00:19:34;12.70;1.00
9375;DHT22;4727;51.202;6.344;2022-10-26T00:22:00;12.80;1.00
9375;DHT22;4727;51.202;6.344;2022-10-26T00:24:25;12.80;1.00
9375;DHT22;4727;51.202;6.344;2022-10-26T00:26:51;12.80;1.00
9375;DHT22;4727;51.202;6.344;2022-10-26T00:29:17;12.70;1.00
9375;DHT22;4727;51.202;6.344;2022-10-26T00:31:43;12.80;1.00
9375;DHT22;4727;51.202;6.344;2022-10-26T00:34:10;12.80;1.00
9375;DHT22;4727;51.202;6.344;2022-10-26T00:36:36;12.80;99.90
9375;DHT22;4727;51.202;6.344;2022-10-26T00:39:02;12.70;99.90
9375;DHT22;4727;51.202;6.344;2022-10-26T00:41:30;12.70;99.90
9375;DHT22;4727;51.202;6.344;2022-10-26T00:43:57;12.70;1.00
9375;DHT22;4727;51.202;6.344;2022-10-26T00:46:31;12.70;1.00
9375;DHT22;4727;51.202;6.344;2022-10-26T00:49:01;12.70;1.00
9375;DHT22;4727;51.202;6.344;2022-10-26T00:51:35;12.70;1.00
9375;DHT22;4727;51.202;6.344;2022-10-26T00:54:06;12.80;1.00
9375;DHT22;4727;51.202;6.344;2022-10-26T00:56:34;12.70;1.00
9375;DHT22;4727;51.202;6.344;2022-10-26T00:59:04;12.70;1.00
9375;DHT22;4727;51.202;6.344;2022-10-26T01:01:32;12.70;1.00
9375;DHT22;4727;51.202;6.344;2022-10-26T01:04:00;12.60;1.00
9375;DHT22;4727;51.202;6.344;2022-10-26T01:06:28;12.60;1.00
9375;DHT22;4727;51.202;6.344;2022-10-26T01:08:54;12.70;1.00
9375;DHT22;4727;51.202;6.344;2022-10-26T01:11:20;12.70;1.00
9375;DHT22;4727;51.202;6.344;2022-10-26T01:13:45;12.60;1.00
9375;DHT22;4727;51.202;6.344;2022-10-26T01:16:19;12.80;1.00
9375;DHT22;4727;51.202;6.344;2022-10-26T01:21:48;12.70;57.40
9375;DHT22;4727;51.202;6.344;2022-10-26T01:32:46;12.70;1.00
9375;DHT22;4727;51.202;6.344;2022-10-26T01:36:26;12.80;1.00
9375;DHT22;4727;51.202;6.344;2022-10-26T01:41:11;12.80;1.00
9375;DHT22;4727;51.202;6.344;2022-10-26T01:43:42;12.80;1.00
9375;DHT22;4727;51.202;6.344;2022-10-26T01:46:09;12.80;1.00
9375;DHT22;4727;51.202;6.344;2022-10-26T01:48:36;12.80;1.00
9375;DHT22;4727;51.202;6.344;2022-10-26T01:51:05;12.80;60.60
9375;DHT22;4727;51.202;6.344;2022-10-26T01:53:31;12.80;33.40
9375;DHT22;4727;51.202;6.344;2022-10-26T01:55:58;12.80;99.90
9375;DHT22;4727;51.202;6.344;2022-10-26T02:04:00;12.80;99.90
9375;DHT22;4727;51.202;6.344;2022-10-26T02:12:18;12.80;99.90
9375;DHT22;4727;51.202;6.344;2022-10-26T02:15:05;12.80;99.90
9375;DHT22;4727;51.202;6.344;2022-10-26T02:20:19;12.80;99.90
9375;DHT22;4727;51.202;6.344;2022-10-26T02:22:49;12.80;99.90
9375;DHT22;4727;51.202;6.344;2022-10-26T02:25:25;12.80;99.90
9375;DHT22;4727;51.202;6.344;2022-10-26T02:27:59;12.80;99.90
9375;DHT22;4727;51.202;6.344;2022-10-26T02:30:26;12.80;99.90
9375;DHT22;4727;51.202;6.344;2022-10-26T02:32:54;12.80;99.90
9375;DHT22;4727;51.202;6.344;2022-10-26T02:35:24;13.00;99.90
9375;DHT22;4727;51.202;6.344;2022-10-26T02:37:52;12.80;99.90
9375;DHT22;4727;51.202;6.344;2022-10-26T02:40:22;12.90;99.90
9375;DHT22;4727;51.202;6.344;2022-10-26T02:42:51;13.10;99.90
9375;DHT22;4727;51.202;6.344;2022-10-26T02:45:21;12.90;99.90
9375;DHT22;4727;51.202;6.344;2022-10-26T02:47:48;13.00;99.90
9375;DHT22;4727;51.202;6.344;2022-10-26T02:50:14;12.90;99.90
9375;DHT22;4727;51.202;6.344;2022-10-26T02:55:24;12.90;99.90
9375;DHT22;4727;51.202;6.344;2022-10-26T02:57:54;12.90;99.90
9375;DHT22;4727;51.202;6.344;2022-10-26T03:00:21;13.00;99.90
9375;DHT22;4727;51.202;6.344;2022-10-26T03:02:55;12.90;99.90
9375;DHT22;4727;51.202;6.344;2022-10-26T03:05:29;13.00;99.90
9375;DHT22;4727;51.202;6.344;2022-10-26T03:07:59;13.20;99.90
9375;DHT22;4727;51.202;6.344;2022-10-26T03:10:24;13.00;99.90
9375;DHT22;4727;51.202;6.344;2022-10-26T03:12:50;13.00;99.90
9375;DHT22;4727;51.202;6.344;2022-10-26T03:15:16;13.00;99.90
9375;DHT22;4727;51.202;6.344;2022-10-26T03:17:42;13.10;99.90
9375;DHT22;4727;51.202;6.344;2022-10-26T03:20:09;13.10;99.90
9375;DHT22;4727;51.202;6.344;2022-10-26T03:22:34;13.10;99.90
9375;DHT22;4727;51.202;6.344;2022-10-26T03:25:00;13.00;99.90
9375;DHT22;4727;51.202;6.344;2022-10-26T03:27:26;13.10;99.90
9375;DHT22;4727;51.202;6.344;2022-10-26T03:29:52;13.10;99.90
9375;DHT22;4727;51.202;6.344;2022-10-26T03:32:18;13.10;99.90
9375;DHT22;4727;51.202;6.344;2022-10-26T03:34:44;13.10;99.90
9375;DHT22;4727;51.202;6.344;2022-10-26T03:37:09;13.20;69.90
9375;DHT22;4727;51.202;6.344;2022-10-26T03:39:35;13.20;65.50
9375;DHT22;4727;51.202;6.344;2022-10-26T03:42:00;13.20;46.00
9375;DHT22;4727;51.202;6.344;2022-10-26T03:44:26;13.20;99.90
9375;DHT22;4727;51.202;6.344;2022-10-26T03:46:52;13.20;99.90
9375;DHT22;4727;51.202;6.344;2022-10-26T03:49:17;13.20;97.00
9375;DHT22;4727;51.202;6.344;2022-10-26T03:51:43;13.30;52.90
9375;DHT22;4727;51.202;6.344;2022-10-26T03:54:08;13.20;99.90
9375;DHT22;4727;51.202;6.344;2022-10-26T03:56:34;13.30;99.90
9375;DHT22;4727;51.202;6.344;2022-10-26T03:58:59;13.30;99.90
9375;DHT22;4727;51.202;6.344;2022-10-26T04:01:25;13.40;99.90
9375;DHT22;4727;51.202;6.344;2022-10-26T04:03:51;13.40;99.90
9375;DHT22;4727;51.202;6.344;2022-10-26T04:06:16;13.30;65.00
9375;DHT22;4727;51.202;6.344;2022-10-26T04:08:42;13.30;98.30
9375;DHT22;4727;51.202;6.344;2022-10-26T04:11:07;13.30;58.80
9375;DHT22;4727;51.202;6.344;2022-10-26T04:13:33;13.30;29.10
9375;DHT22;4727;51.202;6.344;2022-10-26T04:15:59;13.50;1.00
9375;DHT22;4727;51.202;6.344;2022-10-26T04:18:24;13.40;47.00
9375;DHT22;4727;51.202;6.344;2022-10-26T04:20:50;13.30;54.30
9375;DHT22;4727;51.202;6.344;2022-10-26T04:23:17;13.30;49.30
9375;DHT22;4727;51.202;6.344;2022-10-26T04:25:43;13.40;1.00
9375;DHT22;4727;51.202;6.344;2022-10-26T04:28:10;13.30;13.60
9375;DHT22;4727;51.202;6.344;2022-10-26T04:30:37;13.40;1.00
9375;DHT22;4727;51.202;6.344;2022-10-26T04:33:03;13.40;1.00
9375;DHT22;4727;51.202;6.344;2022-10-26T04:35:30;13.40;1.00
9375;DHT22;4727;51.202;6.344;2022-10-26T04:38:00;13.40;1.00
9375;DHT22;4727;51.202;6.344;2022-10-26T04:40:27;13.30;1.00
9375;DHT22;4727;51.202;6.344;2022-10-26T04:42:53;13.40;1.00
9375;DHT22;4727;51.202;6.344;2022-10-26T04:45:19;13.40;1.00
9375;DHT22;4727;51.202;6.344;2022-10-26T04:47:45;13.40;1.00
9375;DHT22;4727;51.202;6.344;2022-10-26T04:50:12;13.30;1.00
9375;DHT22;4727;51.202;6.344;2022-10-26T04:52:38;13.40;1.00
9375;DHT22;4727;51.202;6.344;2022-10-26T04:55:04;13.40;1.00
9375;DHT22;4727;51.202;6.344;2022-10-26T04:57:32;13.40;1.00
9375;DHT22;4727;51.202;6.344;2022-10-26T04:59:59;13.30;1.00
9375;DHT22;4727;51.202;6.344;2022-10-26T05:02:25;13.40;1.00
9375;DHT22;4727;51.202;6.344;2022-10-26T05:04:50;13.40;1.00
9375;DHT22;4727;51.202;6.344;2022-10-26T05:07:16;13.40;1.00
9375;DHT22;4727;51.202;6.344;2022-10-26T05:09:41;13.40;1.00
9375;DHT22;4727;51.202;6.344;2022-10-26T05:12:07;13.50;1.00
9375;DHT22;4727;51.202;6.344;2022-10-26T05:14:33;13.40;1.00
9375;DHT22;4727;51.202;6.344;2022-10-26T05:16:58;13.50;1.00
9375;DHT22;4727;51.202;6.344;2022-10-26T05:19:26;13.50;1.00
9375;DHT22;4727;51.202;6.344;2022-10-26T05:21:51;13.50;1.00
9375;DHT22;4727;51.202;6.344;2022-10-26T05:24:18;13.50;1.00
9375;DHT22;4727;51.202;6.344;2022-10-26T05:26:44;13.60;1.00
9375;DHT22;4727;51.202;6.344;2022-10-26T05:29:09;13.60;99.90
9375;DHT22;4727;51.202;6.344;2022-10-26T05:31:35;13.60;1.00
9375;DHT22;4727;51.202;6.344;2022-10-26T05:34:01;13.80;99.90
9375;DHT22;4727;51.202;6.344;2022-10-26T05:36:26;13.70;99.90
9375;DHT22;4727;51.202;6.344;2022-10-26T05:38:52;13.80;99.90
9375;DHT22;4727;51.202;6.344;2022-10-26T05:41:17;13.70;99.90
9375;DHT22;4727;51.202;6.344;2022-10-26T05:43:46;13.80;99.90
9375;DHT22;4727;51.202;6.344;2022-10-26T05:46:12;13.90;99.90
9375;DHT22;4727;51.202;6.344;2022-10-26T05:48:37;14.00;99.90
9375;DHT22;4727;51.202;6.344;2022-10-26T05:51:03;13.90;99.90
9375;DHT22;4727;51.202;6.344;2022-10-26T05:53:29;13.90;99.90
9375;DHT22;4727;51.202;6.344;2022-10-26T05:55:55;14.00;19.40
9375;DHT22;4727;51.202;6.344;2022-10-26T05:58:22;14.00;4.40
9375;DHT22;4727;51.202;6.344;2022-10-26T06:01:12;14.10;1.00
9375;DHT22;4727;51.202;6.344;2022-10-26T06:04:06;14.10;1.00
9375;DHT22;4727;51.202;6.344;2022-10-26T06:06:43;14.10;1.00
9375;DHT22;4727;51.202;6.344;2022-10-26T06:09:10;14.10;1.00
9375;DHT22;4727;51.202;6.344;2022-10-26T06:11:37;14.20;1.00
9375;DHT22;4727;51.202;6.344;2022-10-26T06:14:02;14.20;1.00
9375;DHT22;4727;51.202;6.344;2022-10-26T06:16:39;14.20;1.00
9375;DHT22;4727;51.202;6.344;2022-10-26T06:19:13;14.30;99.90
9375;DHT22;4727;51.202;6.344;2022-10-26T06:24:34;14.30;1.00
9375;DHT22;4727;51.202;6.344;2022-10-26T06:30:01;14.30;99.90
9375;DHT22;4727;51.202;6.344;2022-10-26T06:32:27;14.40;99.90
9375;DHT22;4727;51.202;6.344;2022-10-26T06:35:14;14.40;99.90
9375;DHT22;4727;51.202;6.344;2022-10-26T06:37:44;14.40;99.90
9375;DHT22;4727;51.202;6.344;2022-10-26T06:40:14;14.40;99.90
9375;DHT22;4727;51.202;6.344;2022-10-26T06:42:41;14.40;99.90
9375;DHT22;4727;51.202;6.344;2022-10-26T06:45:11;14.40;99.90
9375;DHT22;4727;51.202;6.344;2022-10-26T06:47:59;14.40;99.90
9375;DHT22;4727;51.202;6.344;2022-10-26T06:53:26;14.40;99.90
9375;DHT22;4727;51.202;6.344;2022-10-26T06:55:54;14.40;99.90
9375;DHT22;4727;51.202;6.344;2022-10-26T06:58:26;14.40;99.90
9375;DHT22;4727;51.202;6.344;2022-10-26T07:00:53;14.40;99.90
9375;DHT22;4727;51.202;6.344;2022-10-26T07:03:19;14.50;99.90
9375;DHT22;4727;51.202;6.344;2022-10-26T07:05:45;14.40;99.90
9375;DHT22;4727;51.202;6.344;2022-10-26T07:08:11;14.50;99.90
9375;DHT22;4727;51.202;6.344;2022-10-26T07:10:37;14.50;99.90
9375;DHT22;4727;51.202;6.344;2022-10-26T07:13:07;14.50;99.90
9375;DHT22;4727;51.202;6.344;2022-10-26T07:15:33;14.50;99.90
9375;DHT22;4727;51.202;6.344;2022-10-26T07:17:59;14.60;99.90
9375;DHT22;4727;51.202;6.344;2022-10-26T07:20:25;14.60;99.90
9375;DHT22;4727;51.202;6.344;2022-10-26T07:22:55;14.80;99.90
9375;DHT22;4727;51.202;6.344;2022-10-26T07:25:23;14.60;1.00
9375;DHT22;4727;51.202;6.344;2022-10-26T07:27:49;14.60;1.00
9375;DHT22;4727;51.202;6.344;2022-10-26T07:30:14;14.70;1.00
9375;DHT22;4727;51.202;6.344;2022-10-26T07:32:40;14.70;1.00
9375;DHT22;4727;51.202;6.344;2022-10-26T07:35:06;14.70;1.00
9375;DHT22;4727;51.202;6.344;2022-10-26T07:37:32;14.80;1.00
9375;DHT22;4727;51.202;6.344;2022-10-26T07:39:58;14.90;1.00
9375;DHT22;4727;51.202;6.344;2022-10-26T07:42:23;15.00;1.00
9375;DHT22;4727;51.202;6.344;2022-10-26T07:44:49;15.00;1.00
9375;DHT22;4727;51.202;6.344;2022-10-26T07:47:14;15.00;1.00
9375;DHT22;4727;51.202;6.344;2022-10-26T07:49:40;15.00;1.00
9375;DHT22;4727;51.202;6.344;2022-10-26T07:52:06;15.00;1.00
9375;DHT22;4727;51.202;6.344;2022-10-26T07:54:31;15.00;1.00
9375;DHT22;4727;51.202;6.344;2022-10-26T07:56:57;15.10;99.90
9375;DHT22;4727;51.202;6.344;2022-10-26T07:59:23;15.10;99.90
9375;DHT22;4727;51.202;6.344;2022-10-26T08:01:49;15.20;99.90
9375;DHT22;4727;51.202;6.344;2022-10-26T08:04:14;15.20;95.60
9375;DHT22;4727;51.202;6.344;2022-10-26T08:06:40;15.20;95.40
9375;DHT22;4727;51.202;6.344;2022-10-26T08:09:06;15.20;99.90
9375;DHT22;4727;51.202;6.344;2022-10-26T08:11:32;15.30;1.00
9375;DHT22;4727;51.202;6.344;2022-10-26T08:13:57;15.40;1.00
9375;DHT22;4727;51.202;6.344;2022-10-26T08:16:23;15.50;1.00
9375;DHT22;4727;51.202;6.344;2022-10-26T08:18:50;15.50;1.00
9375;DHT22;4727;51.202;6.344;2022-10-26T08:21:16;15.50;1.00
9375;DHT22;4727;51.202;6.344;2022-10-26T08:23:42;15.60;1.00
9375;DHT22;4727;51.202;6.344;2022-10-26T08:26:08;15.60;1.00
9375;DHT22;4727;51.202;6.344;2022-10-26T08:28:36;15.60;99.90
9375;DHT22;4727;51.202;6.344;2022-10-26T08:31:02;15.70;99.90
9375;DHT22;4727;51.202;6.344;2022-10-26T08:33:28;15.70;99.90
9375;DHT22;4727;51.202;6.344;2022-10-26T08:35:57;15.80;99.90
9375;DHT22;4727;51.202;6.344;2022-10-26T08:38:23;15.80;99.90
9375;DHT22;4727;51.202;6.344;2022-10-26T08:40:49;15.90;99.90
9375;DHT22;4727;51.202;6.344;2022-10-26T08:43:32;16.00;99.90
9375;DHT22;4727;51.202;6.344;2022-10-26T08:46:12;16.20;1.00
9375;DHT22;4727;51.202;6.344;2022-10-26T08:51:51;16.20;1.00
9375;DHT22;4727;51.202;6.344;2022-10-26T08:54:39;16.40;1.00
9375;DHT22;4727;51.202;6.344;2022-10-26T09:00:00;16.50;1.00
9375;DHT22;4727;51.202;6.344;2022-10-26T09:02:27;16.40;1.00
9375;DHT22;4727;51.202;6.344;2022-10-26T09:04:53;16.60;1.00
9375;DHT22;4727;51.202;6.344;2022-10-26T09:07:35;16.80;99.90
9375;DHT22;4727;51.202;6.344;2022-10-26T09:10:19;16.80;99.90
9375;DHT22;4727;51.202;6.344;2022-10-26T09:18:47;17.10;99.90
9375;DHT22;4727;51.202;6.344;2022-10-26T09:24:41;17.30;1.00
9375;DHT22;4727;51.202;6.344;2022-10-26T09:26:55;17.40;1.00
9375;DHT22;4727;51.202;6.344;2022-10-26T09:29:28;17.50;1.00
9375;DHT22;4727;51.202;6.344;2022-10-26T09:31:56;17.50;1.00
9375;DHT22;4727;51.202;6.344;2022-10-26T09:34:39;17.60;1.00
9375;DHT22;4727;51.202;6.344;2022-10-26T09:37:28;17.70;99.90
9375;DHT22;4727;51.202;6.344;2022-10-26T09:40:15;17.70;1.00
9375;DHT22;4727;51.202;6.344;2022-10-26T09:48:35;17.90;99.90
9375;DHT22;4727;51.202;6.344;2022-10-26T09:51:03;18.00;99.90
9375;DHT22;4727;51.202;6.344;2022-10-26T09:53:29;18.00;99.90
9375;DHT22;4727;51.202;6.344;2022-10-26T09:56:02;18.10;99.90
9375;DHT22;4727;51.202;6.344;2022-10-26T09:58:34;18.20;99.90
9375;DHT22;4727;51.202;6.344;2022-10-26T10:01:00;18.20;1.00
9375;DHT22;4727;51.202;6.344;2022-10-26T10:03:29;18.20;99.90
9375;DHT22;4727;51.202;6.344;2022-10-26T10:06:18;18.40;99.90
9375;DHT22;4727;51.202;6.344;2022-10-26T10:09:04;18.40;89.60
9375;DHT22;4727;51.202;6.344;2022-10-26T10:12:00;18.40;1.00
9375;DHT22;4727;51.202;6.344;2022-10-26T10:14:36;18.50;86.60
9375;DHT22;4727;51.202;6.344;2022-10-26T10:17:04;18.50;90.10
9375;DHT22;4727;51.202;6.344;2022-10-26T10:19:36;18.60;1.00
9375;DHT22;4727;51.202;6.344;2022-10-26T10:22:19;18.60;1.00
9375;DHT22;4727;51.202;6.344;2022-10-26T10:24:56;18.70;1.00
9375;DHT22;4727;51.202;6.344;2022-10-26T10:27:22;18.70;1.00
9375;DHT22;4727;51.202;6.344;2022-10-26T10:29:51;18.70;1.00
9375;DHT22;4727;51.202;6.344;2022-10-26T10:32:22;18.70;1.00
9375;DHT22;4727;51.202;6.344;2022-10-26T10:34:49;18.70;1.00
9375;DHT22;4727;51.202;6.344;2022-10-26T10:37:36;18.70;1.00
9375;DHT22;4727;51.202;6.344;2022-10-26T10:40:20;18.90;99.90
9375;DHT22;4727;51.202;6.344;2022-10-26T10:42:47;18.90;1.00
9375;DHT22;4727;51.202;6.344;2022-10-26T10:45:26;19.20;99.90
9375;DHT22;4727;51.202;6.344;2022-10-26T10:48:19;19.00;1.00
9375;DHT22;4727;51.202;6.344;2022-10-26T10:50:58;19.00;1.00
9375;DHT22;4727;51.202;6.344;2022-10-26T11:07:04;19.30;1.00
9375;DHT22;4727;51.202;6.344;2022-10-26T11:09:33;19.30;1.00
9375;DHT22;4727;51.202;6.344;2022-10-26T11:12:06;19.40;1.00
9375;DHT22;4727;51.202;6.344;2022-10-26T11:14:38;19.40;99.90
9375;DHT22;4727;51.202;6.344;2022-10-26T11:17:10;19.50;99.90
9375;DHT22;4727;51.202;6.344;2022-10-26T11:22:29;19.50;99.90
9375;DHT22;4727;51.202;6.344;2022-10-26T11:27:44;19.50;1.00
9375;DHT22;4727;51.202;6.344;2022-10-26T11:30:18;19.50;99.90
9375;DHT22;4727;51.202;6.344;2022-10-26T11:33:13;19.50;99.90
9375;DHT22;4727;51.202;6.344;2022-10-26T11:35:57;19.60;1.00
9375;DHT22;4727;51.202;6.344;2022-10-26T11:44:08;19.60;1.00
9375;DHT22;4727;51.202;6.344;2022-10-26T11:46:43;19.60;1.00
9375;DHT22;4727;51.202;6.344;2022-10-26T11:49:29;19.70;1.00
9375;DHT22;4727;51.202;6.344;2022-10-26T11:52:24;19.80;99.90
9375;DHT22;4727;51.202;6.344;2022-10-26T11:54:57;19.80;99.90
9375;DHT22;4727;51.202;6.344;2022-10-26T11:57:26;19.80;99.90
9375;DHT22;4727;51.202;6.344;2022-10-26T12:00:13;19.70;99.90
9375;DHT22;4727;51.202;6.344;2022-10-26T12:02:41;19.70;99.90
9375;DHT22;4727;51.202;6.344;2022-10-26T12:05:21;19.80;99.90
9375;DHT22;4727;51.202;6.344;2022-10-26T12:07:52;19.80;99.90
9375;DHT22;4727;51.202;6.344;2022-10-26T12:10:28;19.80;1.00
9375;DHT22;4727;51.202;6.344;2022-10-26T12:12:58;19.90;1.00
9375;DHT22;4727;51.202;6.344;2022-10-26T12:15:55;19.90;99.90
9375;DHT22;4727;51.202;6.344;2022-10-26T12:18:41;20.00;99.90
9375;DHT22;4727;51.202;6.344;2022-10-26T12:21:08;20.10;11.20
9375;DHT22;4727;51.202;6.344;2022-10-26T12:23:37;20.10;99.90
9375;DHT22;4727;51.202;6.344;2022-10-26T12:34:10;20.10;99.90
9375;DHT22;4727;51.202;6.344;2022-10-26T12:39:37;20.10;99.90
9375;DHT22;4727;51.202;6.344;2022-10-26T12:46:59;20.40;99.90
9375;DHT22;4727;51.202;6.344;2022-10-26T12:52:29;20.40;1.00
9375;DHT22;4727;51.202;6.344;2022-10-26T12:55:19;20.50;1.00
9375;DHT22;4727;51.202;6.344;2022-10-26T12:58:00;20.50;99.90
9375;DHT22;4727;51.202;6.344;2022-10-26T13:00:29;20.40;99.90
9375;DHT22;4727;51.202;6.344;2022-10-26T13:03:22;20.40;99.90
9375;DHT22;4727;51.202;6.344;2022-10-26T13:08:42;20.60;99.90
9375;DHT22;4727;51.202;6.344;2022-10-26T13:11:30;20.70;1.00
9375;DHT22;4727;51.202;6.344;2022-10-26T13:13:59;20.80;1.00
9375;DHT22;4727;51.202;6.344;2022-10-26T13:16:27;20.90;1.00
9375;DHT22;4727;51.202;6.344;2022-10-26T13:18:53;20.80;1.00
9375;DHT22;4727;51.202;6.344;2022-10-26T13:21:21;20.80;1.00
9375;DHT22;4727;51.202;6.344;2022-10-26T13:26:24;21.20;1.00
9375;DHT22;4727;51.202;6.344;2022-10-26T13:28:53;21.20;1.00
9375;DHT22;4727;51.202;6.344;2022-10-26T13:34:09;21.20;99.90
9375;DHT22;4727;51.202;6.344;2022-10-26T13:39:38;21.20;99.90
9375;DHT22;4727;51.202;6.344;2022-10-26T13:42:05;21.20;99.90
9375;DHT22;4727;51.202;6.344;2022-10-26T13:47:54;21.50;99.90
9375;DHT22;4727;51.202;6.344;2022-10-26T13:50:26;21.90;91.90
9375;DHT22;4727;51.202;6.344;2022-10-26T13:52:54;21.70;1.00
9375;DHT22;4727;51.202;6.344;2022-10-26T13:55:26;21.60;1.00
9375;DHT22;4727;51.202;6.344;2022-10-26T13:58:08;21.50;1.00
9375;DHT22;4727;51.202;6.344;2022-10-26T14:00:35;21.60;99.90
9375;DHT22;4727;51.202;6.344;2022-10-26T14:03:12;21.70;99.90
9375;DHT22;4727;51.202;6.344;2022-10-26T14:05:42;21.80;1.00
9375;DHT22;4727;51.202;6.344;2022-10-26T14:08:14;21.70;1.00
9375;DHT22;4727;51.202;6.344;2022-10-26T14:10:44;21.70;98.60
9375;DHT22;4727;51.202;6.344;2022-10-26T14:13:16;21.80;99.90
9375;DHT22;4727;51.202;6.344;2022-10-26T14:15:45;21.80;1.00
9375;DHT22;4727;51.202;6.344;2022-10-26T14:18:16;21.70;8.30
9375;DHT22;4727;51.202;6.344;2022-10-26T14:20:48;21.70;1.00
9375;DHT22;4727;51.202;6.344;2022-10-26T14:23:25;21.60;1.00
9375;DHT22;4727;51.202;6.344;2022-10-26T14:25:54;21.60;1.00
9375;DHT22;4727;51.202;6.344;2022-10-26T14:28:22;21.50;6.80
9375;DHT22;4727;51.202;6.344;2022-10-26T14:30:47;21.40;25.40
9375;DHT22;4727;51.202;6.344;2022-10-26T14:33:18;21.40;1.00
9375;DHT22;4727;51.202;6.344;2022-10-26T14:35:45;21.30;1.00
9375;DHT22;4727;51.202;6.344;2022-10-26T14:38:32;21.20;1.00
9375;DHT22;4727;51.202;6.344;2022-10-26T14:41:01;21.00;1.00
9375;DHT22;4727;51.202;6.344;2022-10-26T14:43:30;21.00;99.90
9375;DHT22;4727;51.202;6.344;2022-10-26T14:45:56;21.00;23.60
9375;DHT22;4727;51.202;6.344;2022-10-26T14:48:28;21.00;1.00
9375;DHT22;4727;51.202;6.344;2022-10-26T14:53:33;20.80;99.90
9375;DHT22;4727;51.202;6.344;2022-10-26T14:56:00;20.80;76.00
9375;DHT22;4727;51.202;6.344;2022-10-26T14:58:28;20.80;68.70
9375;DHT22;4727;51.202;6.344;2022-10-26T15:01:23;20.70;1.00
9375;DHT22;4727;51.202;6.344;2022-10-26T15:03:56;20.70;1.00
9375;DHT22;4727;51.202;6.344;2022-10-26T15:08:58;20.60;99.90
9375;DHT22;4727;51.202;6.344;2022-10-26T15:11:27;20.60;99.90
9375;DHT22;4727;51.202;6.344;2022-10-26T15:13:55;20.60;99.90
9375;DHT22;4727;51.202;6.344;2022-10-26T15:16:23;20.70;99.90
9375;DHT22;4727;51.202;6.344;2022-10-26T15:18:56;20.50;99.90
9375;DHT22;4727;51.202;6.344;2022-10-26T15:21:33;20.50;99.90
9375;DHT22;4727;51.202;6.344;2022-10-26T15:24:00;20.50;99.90
9375;DHT22;4727;51.202;6.344;2022-10-26T15:26:27;20.40;1.00
9375;DHT22;4727;51.202;6.344;2022-10-26T15:28:53;20.30;1.00
9375;DHT22;4727;51.202;6.344;2022-10-26T15:36:19;20.10;1.00
9375;DHT22;4727;51.202;6.344;2022-10-26T15:38:45;20.00;1.00
9375;DHT22;4727;51.202;6.344;2022-10-26T15:41:18;20.00;1.00
9375;DHT22;4727;51.202;6.344;2022-10-26T15:43:49;20.00;1.00
9375;DHT22;4727;51.202;6.344;2022-10-26T15:46:15;19.90;1.00
9375;DHT22;4727;51.202;6.344;2022-10-26T15:48:41;19.80;1.00
9375;DHT22;4727;51.202;6.344;2022-10-26T15:51:11;19.80;1.00
9375;DHT22;4727;51.202;6.344;2022-10-26T15:53:38;19.80;1.00
9375;DHT22;4727;51.202;6.344;2022-10-26T15:56:09;19.60;1.00
9375;DHT22;4727;51.202;6.344;2022-10-26T15:58:37;19.60;99.90
9375;DHT22;4727;51.202;6.344;2022-10-26T16:01:03;19.50;99.90
9375;DHT22;4727;51.202;6.344;2022-10-26T16:03:29;19.50;99.90
9375;DHT22;4727;51.202;6.344;2022-10-26T16:05:57;19.40;99.90
9375;DHT22;4727;51.202;6.344;2022-10-26T16:08:26;19.30;99.90
9375;DHT22;4727;51.202;6.344;2022-10-26T16:10:52;19.30;99.90
9375;DHT22;4727;51.202;6.344;2022-10-26T16:13:17;19.30;99.90
9375;DHT22;4727;51.202;6.344;2022-10-26T16:15:43;19.30;99.90
9375;DHT22;4727;51.202;6.344;2022-10-26T16:18:09;19.30;1.00
9375;DHT22;4727;51.202;6.344;2022-10-26T16:20:35;19.10;1.00
9375;DHT22;4727;51.202;6.344;2022-10-26T16:23:01;19.20;1.00
9375;DHT22;4727;51.202;6.344;2022-10-26T16:25:33;19.10;1.00
9375;DHT22;4727;51.202;6.344;2022-10-26T16:27:59;19.00;1.00
9375;DHT22;4727;51.202;6.344;2022-10-26T16:30:25;18.90;1.00
9375;DHT22;4727;51.202;6.344;2022-10-26T16:32:50;18.90;1.00
9375;DHT22;4727;51.202;6.344;2022-10-26T16:35:16;18.80;1.00
9375;DHT22;4727;51.202;6.344;2022-10-26T16:37:42;18.80;1.00
9375;DHT22;4727;51.202;6.344;2022-10-26T16:40:08;18.80;8.40
9375;DHT22;4727;51.202;6.344;2022-10-26T16:42:34;18.80;9.90
9375;DHT22;4727;51.202;6.344;2022-10-26T16:44:59;18.80;92.20
9375;DHT22;4727;51.202;6.344;2022-10-26T16:47:26;18.80;99.90
9375;DHT22;4727;51.202;6.344;2022-10-26T16:49:51;18.70;99.90
9375;DHT22;4727;51.202;6.344;2022-10-26T16:52:17;18.70;99.90
9375;DHT22;4727;51.202;6.344;2022-10-26T16:54:42;18.60;99.90
9375;DHT22;4727;51.202;6.344;2022-10-26T16:57:08;18.50;99.90
9375;DHT22;4727;51.202;6.344;2022-10-26T16:59:34;18.60;99.90
9375;DHT22;4727;51.202;6.344;2022-10-26T17:01:59;18.50;99.90
9375;DHT22;4727;51.202;6.344;2022-10-26T17:04:25;18.50;99.90
9375;DHT22;4727;51.202;6.344;2022-10-26T17:06:50;18.50;99.90
9375;DHT22;4727;51.202;6.344;2022-10-26T17:09:16;18.50;1.00
9375;DHT22;4727;51.202;6.344;2022-10-26T17:11:41;18.40;1.00
9375;DHT22;4727;51.202;6.344;2022-10-26T17:14:07;18.50;1.00
9375;DHT22;4727;51.202;6.344;2022-10-26T17:16:35;18.30;1.00
9375;DHT22;4727;51.202;6.344;2022-10-26T17:19:00;18.30;1.00
9375;DHT22;4727;51.202;6.344;2022-10-26T17:21:29;18.30;1.00
9375;DHT22;4727;51.202;6.344;2022-10-26T17:23:55;18.20;1.00
9375;DHT22;4727;51.202;6.344;2022-10-26T17:26:20;18.20;1.00
9375;DHT22;4727;51.202;6.344;2022-10-26T17:28:53;18.10;47.40
9375;DHT22;4727;51.202;6.344;2022-10-26T17:31:19;18.10;99.90
9375;DHT22;4727;51.202;6.344;2022-10-26T17:33:45;18.00;99.90
9375;DHT22;4727;51.202;6.344;2022-10-26T17:36:15;18.00;99.90
9375;DHT22;4727;51.202;6.344;2022-10-26T17:38:42;17.90;99.90
9375;DHT22;4727;51.202;6.344;2022-10-26T17:41:09;17.90;99.90
9375;DHT22;4727;51.202;6.344;2022-10-26T17:43:37;17.90;99.90
9375;DHT22;4727;51.202;6.344;2022-10-26T17:46:09;17.80;99.90
9375;DHT22;4727;51.202;6.344;2022-10-26T17:48:35;17.80;1.00
9375;DHT22;4727;51.202;6.344;2022-10-26T17:51:04;17.80;1.00
9375;DHT22;4727;51.202;6.344;2022-10-26T17:53:30;17.70;1.00
9375;DHT22;4727;51.202;6.344;2022-10-26T17:56:07;17.70;1.00
9375;DHT22;4727;51.202;6.344;2022-10-26T17:58:33;17.70;1.00
9375;DHT22;4727;51.202;6.344;2022-10-26T18:01:04;17.60;1.00
9375;DHT22;4727;51.202;6.344;2022-10-26T18:03:30;17.60;1.00
9375;DHT22;4727;51.202;6.344;2022-10-26T18:05:56;17.40;1.00
9375;DHT22;4727;51.202;6.344;2022-10-26T18:08:22;17.40;99.90
9375;DHT22;4727;51.202;6.344;2022-10-26T18:10:52;17.40;99.90
9375;DHT22;4727;51.202;6.344;2022-10-26T18:13:19;17.40;99.90
9375;DHT22;4727;51.202;6.344;2022-10-26T18:15:45;17.40;99.90
9375;DHT22;4727;51.202;6.344;2022-10-26T18:18:11;17.40;99.90
9375;DHT22;4727;51.202;6.344;2022-10-26T18:20:37;17.40;99.90
9375;DHT22;4727;51.202;6.344;2022-10-26T18:23:03;17.30;99.90
9375;DHT22;4727;51.202;6.344;2022-10-26T18:25:28;17.30;99.90
9375;DHT22;4727;51.202;6.344;2022-10-26T18:27:55;17.40;99.90
9375;DHT22;4727;51.202;6.344;2022-10-26T18:30:22;17.30;99.90
9375;DHT22;4727;51.202;6.344;2022-10-26T18:32:51;17.20;99.90